Time;durP1;ratioP1;P1;durP2;ratioP2;P2;SDS_P1;SDS_P2;PMS_P1;PMS_P2;Temp;Humidity;BMP_temperature;BMP_pressure;BME280_temperature;BME280_humidity;BME280_pressure;Samples;Min_cycle;Max_cycle;Signal;HPM_P1;HPM_P2
2021/04/16 00:01:42;;;;;;;;;;;;;;;4.17;44.85;102983.16;5038351;28;19913;-71
2021/04/16 00:04:07;;;;;;;;;;;;;;;4.15;45.09;102974.41;5038433;28;19909;-71
2021/04/16 00:06:32;;;;;;;;;;;;;;;4.12;45.42;102980.13;5049075;28;19993;-71
2021/04/16 00:08:57;;;;;;;;;;;;;;;4.09;45.26;102975.09;5051065;28;19916;-72
2021/04/16 00:11:23;;;;;;;;;;;;;;;4.06;45.68;102980.84;5046144;28;20336;-71
2021/04/16 00:13:49;;;;;;;;;;;;;;;4.05;45.28;102979.19;5070726;28;19912;-71
2021/04/16 00:16:16;;;;;;;;;;;;;;;4.04;45.13;102980.19;5050154;28;19966;-71
2021/04/16 00:18:41;;;;;;;;;;;;;;;4.02;45.55;102983.06;5036638;28;19977;-70
2021/04/16 00:21:06;;;;;;;;;;;;;;;4.00;45.39;102980.53;5043916;28;20366;-73
2021/04/16 00:23:31;;;;;;;;;;;;;;;3.98;45.60;102977.19;5048418;28;20424;-71
2021/04/16 00:25:57;;;;;;;;;;;;;;;3.96;45.77;102976.53;5043638;28;19913;-71
2021/04/16 00:28:22;;;;;;;;;;;;;;;3.94;46.12;102978.53;5049774;28;19913;-71
2021/04/16 00:30:58;;;;;;;;;;;;;;;3.93;46.16;102973.34;5050023;28;19913;-70
2021/04/16 00:33:24;;;;;;;;;;;;;;;3.91;46.61;102972.66;5080436;28;20298;-71
2021/04/16 00:35:49;;;;;;;;;;;;;;;3.88;46.00;102979.25;5077483;28;19913;-71
2021/04/16 00:38:14;;;;;;;;;;;;;;;3.86;45.65;102975.88;5038848;28;19913;-71
2021/04/16 00:40:41;;;;;;;;;;;;;;;3.85;46.13;102981.47;5044155;28;20313;-71
2021/04/16 00:43:06;;;;;;;;;;;;;;;3.82;46.79;102985.34;5072646;28;19920;-71
2021/04/16 00:45:31;;;;;;;;;;;;;;;3.80;46.87;102979.28;5052160;28;19912;-71
2021/04/16 00:47:57;;;;;;;;;;;;;;;3.78;46.66;102981.31;5048443;28;19917;-71
2021/04/16 00:50:25;;;;;;;;;;;;;;;3.76;46.43;102980.63;5047083;28;19923;-71
2021/04/16 00:52:50;;;;;;;;;;;;;;;3.74;46.47;102982.69;5086873;28;19916;-71
2021/04/16 00:55:17;;;;;;;;;;;;;;;3.72;46.84;102982.84;5088051;28;19916;-71
2021/04/16 00:57:42;;;;;;;;;;;;;;;3.70;46.87;102974.09;5052705;28;20354;-71
2021/04/16 01:00:08;;;;;;;;;;;;;;;3.68;47.00;102977.97;5051880;28;19919;-70
2021/04/16 01:02:33;;;;;;;;;;;;;;;3.68;46.51;102983.38;5047305;28;19912;-71
2021/04/16 01:04:58;;;;;;;;;;;;;;;3.68;46.54;102980.66;5075393;28;19919;-71
2021/04/16 01:07:24;;;;;;;;;;;;;;;3.67;46.35;102979.81;5053462;28;20380;-70
2021/04/16 01:09:49;;;;;;;;;;;;;;;3.69;46.75;102974.28;5048555;28;20352;-71
2021/04/16 01:12:14;;;;;;;;;;;;;;;3.69;46.27;102976.97;5077064;28;20411;-71
2021/04/16 01:14:40;;;;;;;;;;;;;;;3.70;46.89;102967.84;5049799;28;19999;-71
2021/04/16 01:17:06;;;;;;;;;;;;;;;3.71;46.89;102972.22;5039816;28;19909;-71
2021/04/16 01:19:38;;;;;;;;;;;;;;;3.70;46.79;102970.56;5053845;28;20290;-71
2021/04/16 01:22:30;;;;;;;;;;;;;;;3.69;47.20;102975.09;5038962;28;19954;-71
2021/04/16 01:24:59;;;;;;;;;;;;;;;3.67;46.57;102969.03;5051350;28;19956;-71
2021/04/16 01:27:25;;;;;;;;;;;;;;;3.66;47.26;102970.06;5030472;28;19928;-71
2021/04/16 01:29:50;;;;;;;;;;;;;;;3.64;47.06;102960.47;5051768;28;19916;-71
2021/04/16 01:32:25;;;;;;;;;;;;;;;3.61;47.05;102960.81;5052403;28;19913;-70
2021/04/16 01:34:52;;;;;;;;;;;;;;;3.59;47.41;102968.22;5033806;28;20294;-71
2021/04/16 01:37:17;;;;;;;;;;;;;;;3.53;47.37;102962.50;5050798;28;19919;-71
2021/04/16 01:39:43;;;;;;;;;;;;;;;3.51;47.15;102964.53;5044524;28;19913;-71
2021/04/16 01:42:08;;;;;;;;;;;;;;;3.49;47.02;102957.63;5044316;28;19919;-71
2021/04/16 01:44:34;;;;;;;;;;;;;;;3.44;47.23;102963.56;5049353;28;20369;-71
2021/04/16 01:46:59;;;;;;;;;;;;;;;3.41;47.72;102961.22;5048158;28;20326;-71
2021/04/16 01:49:28;;;;;;;;;;;;;;;3.39;47.72;102957.84;5046243;28;19917;-71
2021/04/16 01:51:53;;;;;;;;;;;;;;;3.37;47.16;102954.47;5050213;28;19927;-71
2021/04/16 01:54:45;;;;;;;;;;;;;;;3.37;47.74;102956.34;5050428;28;19917;-71
2021/04/16 01:57:12;;;;;;;;;;;;;;;3.32;47.13;102956.84;5042464;28;19936;-71
2021/04/16 01:59:37;;;;;;;;;;;;;;;3.31;48.05;102960.56;5040740;28;20439;-71
2021/04/16 02:02:03;;;;;;;;;;;;;;;3.29;47.36;102951.78;5051259;28;19916;-70
2021/04/16 02:04:29;;;;;;;;;;;;;;;3.26;47.81;102952.97;5037294;28;20342;-71
2021/04/16 02:06:54;;;;;;;;;;;;;;;3.25;47.29;102950.47;5048690;28;19917;-71
2021/04/16 02:09:20;;;;;;;;;;;;;;;3.26;48.12;102957.53;5043109;28;19919;-71
2021/04/16 02:11:45;;;;;;;;;;;;;;;3.28;47.78;102950.13;5071685;28;19913;-70
2021/04/16 02:14:11;;;;;;;;;;;;;;;3.31;47.38;102955.16;5052660;28;20384;-70
2021/04/16 02:16:37;;;;;;;;;;;;;;;3.36;47.14;102954.66;5037782;28;19913;-70
2021/04/16 02:19:02;;;;;;;;;;;;;;;3.40;47.59;102955.97;5050159;28;19939;-70
2021/04/16 02:21:27;;;;;;;;;;;;;;;3.43;47.58;102952.94;5049602;28;20427;-71
2021/04/16 02:23:52;;;;;;;;;;;;;;;3.46;47.58;102953.41;5052698;28;19920;-71
2021/04/16 02:26:18;;;;;;;;;;;;;;;3.50;47.95;102949.38;5042983;28;20346;-70
2021/04/16 02:28:43;;;;;;;;;;;;;;;3.53;47.16;102953.59;5046170;28;19920;-70
2021/04/16 02:31:08;;;;;;;;;;;;;;;3.57;47.27;102949.50;5084060;28;19923;-71
2021/04/16 02:33:33;;;;;;;;;;;;;;;3.59;47.46;102950.19;5039855;28;20279;-71
2021/04/16 02:35:59;;;;;;;;;;;;;;;3.61;48.24;102947.31;5078840;28;19963;-71
2021/04/16 02:38:24;;;;;;;;;;;;;;;3.64;48.04;102949.69;5051000;28;19999;-71
2021/04/16 02:40:49;;;;;;;;;;;;;;;3.66;48.20;102939.56;5050418;28;19920;-71
2021/04/16 02:43:14;;;;;;;;;;;;;;;3.70;48.06;102940.88;5047984;28;20541;-71
2021/04/16 02:45:40;;;;;;;;;;;;;;;3.74;48.15;102939.53;5048289;28;19912;-71
2021/04/16 02:48:05;;;;;;;;;;;;;;;3.77;47.63;102940.00;5041106;28;20003;-70
2021/04/16 02:50:30;;;;;;;;;;;;;;;3.82;47.61;102935.91;5037210;28;19967;-71
2021/04/16 02:52:56;;;;;;;;;;;;;;;3.83;47.63;102933.06;5033356;28;19963;-71
2021/04/16 02:55:21;;;;;;;;;;;;;;;3.86;47.89;102937.25;5073075;28;19913;-71
2021/04/16 02:57:46;;;;;;;;;;;;;;;3.86;48.00;102921.91;5043543;28;19913;-70
2021/04/16 03:00:13;;;;;;;;;;;;;;;3.87;48.42;102934.38;5050761;28;20007;-71
2021/04/16 03:02:38;;;;;;;;;;;;;;;3.87;48.10;102923.56;5040746;28;20336;-70
2021/04/16 03:05:04;;;;;;;;;;;;;;;3.86;48.15;102923.78;5073780;28;19920;-70
2021/04/16 03:07:29;;;;;;;;;;;;;;;3.82;48.31;102928.69;5050536;28;20422;-70
2021/04/16 03:09:55;;;;;;;;;;;;;;;3.80;48.38;102927.19;5048591;28;20016;-70
2021/04/16 03:12:20;;;;;;;;;;;;;;;3.76;48.62;102937.47;5051613;28;19920;-70
2021/04/16 03:14:45;;;;;;;;;;;;;;;3.73;48.84;102927.03;5045295;28;20303;-71
2021/04/16 03:17:10;;;;;;;;;;;;;;;3.70;48.34;102932.78;5046534;28;19913;-71
2021/04/16 03:19:36;;;;;;;;;;;;;;;3.66;48.54;102931.47;5043729;28;19936;-71
2021/04/16 03:22:01;;;;;;;;;;;;;;;3.61;48.75;102931.97;5049976;28;20449;-71
2021/04/16 03:24:26;;;;;;;;;;;;;;;3.56;49.08;102927.09;5049369;28;20006;-71
2021/04/16 03:26:51;;;;;;;;;;;;;;;3.52;48.84;102915.00;5047242;28;20374;-71
2021/04/16 03:29:17;;;;;;;;;;;;;;;3.47;49.20;102921.94;5051415;28;19916;-70
2021/04/16 03:31:45;;;;;;;;;;;;;;;3.41;49.27;102923.47;5048481;28;20000;-70
2021/04/16 03:34:10;;;;;;;;;;;;;;;3.36;48.96;102925.00;5045375;28;20282;-70
2021/04/16 03:36:36;;;;;;;;;;;;;;;3.30;49.51;102926.50;5041502;28;19920;-71
2021/04/16 03:39:01;;;;;;;;;;;;;;;3.26;49.48;102919.78;5045691;28;20406;-71
2021/04/16 03:41:26;;;;;;;;;;;;;;;3.20;48.88;102920.47;5048655;28;19913;-71
2021/04/16 03:43:51;;;;;;;;;;;;;;;3.16;49.19;102921.81;5044202;28;19919;-71
2021/04/16 03:46:17;;;;;;;;;;;;;;;3.11;49.03;102920.50;5073127;28;19935;-71
2021/04/16 03:48:42;;;;;;;;;;;;;;;3.06;49.30;102924.72;5052287;28;19916;-71
2021/04/16 03:51:07;;;;;;;;;;;;;;;3.03;49.75;102925.91;5043127;28;19917;-70
2021/04/16 03:53:33;;;;;;;;;;;;;;;3.00;49.36;102925.38;5044907;28;19924;-70
2021/04/16 03:55:58;;;;;;;;;;;;;;;2.97;49.64;102923.03;5047700;28;19913;-70
2021/04/16 03:58:23;;;;;;;;;;;;;;;2.93;49.21;102925.25;5040493;28;19923;-71
2021/04/16 04:00:48;;;;;;;;;;;;;;;2.91;49.53;102919.16;5039663;28;19909;-71
2021/04/16 04:03:14;;;;;;;;;;;;;;;2.89;49.58;102926.56;5048518;28;20374;-71
2021/04/16 04:05:39;;;;;;;;;;;;;;;2.87;49.94;102917.84;5049142;28;19959;-71
2021/04/16 04:08:05;;;;;;;;;;;;;;;2.86;49.85;102913.44;5046108;28;19958;-71
2021/04/16 04:10:36;;;;;;;;;;;;;;;2.85;49.54;102911.78;5071420;28;19916;-71
2021/04/16 04:13:01;;;;;;;;;;;;;;;2.85;49.92;102917.16;5078435;28;19923;-71
2021/04/16 04:15:26;;;;;;;;;;;;;;;2.84;50.06;102915.50;5042971;28;19995;-71
2021/04/16 04:17:53;;;;;;;;;;;;;;;2.83;49.30;102914.63;5046467;28;19913;-71
2021/04/16 04:20:19;;;;;;;;;;;;;;;2.83;49.45;102919.19;5047809;28;19912;-71
2021/04/16 04:22:44;;;;;;;;;;;;;;;2.84;49.07;102919.03;5051914;28;20361;-71
2021/04/16 04:25:10;;;;;;;;;;;;;;;2.84;49.63;102920.88;5050941;28;19966;-71
2021/04/16 04:27:35;;;;;;;;;;;;;;;2.84;49.86;102916.34;5052246;28;20281;-71
2021/04/16 04:30:00;;;;;;;;;;;;;;;2.85;49.74;102918.00;5042534;28;19965;-71
2021/04/16 04:32:26;;;;;;;;;;;;;;;2.86;49.70;102905.38;5051550;28;19912;-71
2021/04/16 04:34:51;;;;;;;;;;;;;;;2.88;49.67;102908.75;5050453;28;19912;-71
2021/04/16 04:37:16;;;;;;;;;;;;;;;2.90;49.34;102912.13;5051959;28;19912;-70
2021/04/16 04:39:43;;;;;;;;;;;;;;;2.92;49.92;102915.50;5050908;28;20358;-71
2021/04/16 04:42:09;;;;;;;;;;;;;;;2.94;49.54;102916.13;5051905;28;19912;-71
2021/04/16 04:44:34;;;;;;;;;;;;;;;2.98;49.30;102922.03;5050500;28;19953;-71
2021/04/16 04:46:59;;;;;;;;;;;;;;;2.99;49.23;102919.16;5047059;28;19912;-71
2021/04/16 04:49:25;;;;;;;;;;;;;;;3.02;49.36;102918.81;5052343;28;20269;-71
2021/04/16 04:51:50;;;;;;;;;;;;;;;3.05;49.62;102918.47;5083411;28;20411;-71
2021/04/16 04:54:15;;;;;;;;;;;;;;;3.08;48.90;102912.75;5043783;28;19918;-71
2021/04/16 04:56:41;;;;;;;;;;;;;;;3.10;49.32;102908.03;5050737;28;20369;-71
2021/04/16 04:59:06;;;;;;;;;;;;;;;3.15;49.46;102906.69;5051818;28;20051;-71
2021/04/16 05:01:31;;;;;;;;;;;;;;;3.17;49.65;102910.88;5047441;28;19909;-71
2021/04/16 05:03:57;;;;;;;;;;;;;;;3.19;49.68;102908.88;5049435;28;20263;-72
2021/04/16 05:06:22;;;;;;;;;;;;;;;3.23;49.15;102903.97;5048592;28;20270;-71
2021/04/16 05:08:47;;;;;;;;;;;;;;;3.26;49.91;102914.41;5040657;28;20367;-71
2021/04/16 05:11:12;;;;;;;;;;;;;;;3.30;49.57;102913.03;5080361;28;20039;-72
2021/04/16 05:13:38;;;;;;;;;;;;;;;3.35;49.75;102913.34;5041745;28;20259;-72
2021/04/16 05:16:03;;;;;;;;;;;;;;;3.40;49.26;102910.97;5051394;28;20026;-72
2021/04/16 05:18:28;;;;;;;;;;;;;;;3.44;50.04;102917.72;5048826;28;19919;-71
2021/04/16 05:20:54;;;;;;;;;;;;;;;3.50;49.93;102917.00;5068235;28;19913;-72
2021/04/16 05:23:20;;;;;;;;;;;;;;;3.53;50.05;102908.56;5045329;28;19920;-71
2021/04/16 05:25:46;;;;;;;;;;;;;;;3.56;49.48;102916.31;5051093;28;20293;-71
2021/04/16 05:28:11;;;;;;;;;;;;;;;3.61;50.48;102912.25;5055433;28;19908;-71
2021/04/16 05:30:36;;;;;;;;;;;;;;;3.66;49.74;102907.19;5043321;28;19920;-71
2021/04/16 05:33:02;;;;;;;;;;;;;;;3.71;49.95;102916.44;5051968;28;20281;-70
2021/04/16 05:35:27;;;;;;;;;;;;;;;3.76;50.02;102907.78;5050591;28;19917;-71
2021/04/16 05:37:56;;;;;;;;;;;;;;;3.82;50.10;102909.81;5055172;28;19983;-71
2021/04/16 05:40:21;;;;;;;;;;;;;;;3.86;50.32;102900.31;5053136;28;19919;-71
2021/04/16 05:42:47;;;;;;;;;;;;;;;3.90;49.72;102901.66;5049581;28;19924;-71
2021/04/16 05:45:12;;;;;;;;;;;;;;;3.94;50.10;102897.56;5051119;28;20031;-72
2021/04/16 05:47:38;;;;;;;;;;;;;;;4.00;49.75;102907.66;5050956;28;19971;-72
2021/04/16 05:50:05;;;;;;;;;;;;;;;4.04;50.27;102901.91;5049954;28;20329;-71
2021/04/16 05:52:30;;;;;;;;;;;;;;;4.09;50.01;102905.78;5049897;28;19928;-72
2021/04/16 05:54:55;;;;;;;;;;;;;;;4.14;49.99;102913.31;5052757;28;19912;-72
2021/04/16 05:57:20;;;;;;;;;;;;;;;4.16;50.24;102908.59;5045530;28;19966;-72
2021/04/16 05:59:45;;;;;;;;;;;;;;;4.19;49.79;102900.13;5054421;28;20378;-72
2021/04/16 06:02:21;;;;;;;;;;;;;;;4.23;49.88;102902.28;5050738;28;19912;-71
2021/04/16 06:04:46;;;;;;;;;;;;;;;4.31;49.65;102909.50;5053356;28;19970;-71
2021/04/16 06:07:12;;;;;;;;;;;;;;;4.37;49.62;102907.94;5052378;28;20320;-72
2021/04/16 06:09:38;;;;;;;;;;;;;;;4.43;50.06;102901.81;5054520;28;19919;-71
2021/04/16 06:12:04;;;;;;;;;;;;;;;4.49;49.50;102905.66;5053051;28;19913;-71
2021/04/16 06:14:29;;;;;;;;;;;;;;;4.55;49.67;102907.63;5042047;28;19913;-71
2021/04/16 06:16:54;;;;;;;;;;;;;;;4.60;49.39;102911.44;5045977;28;19924;-71
2021/04/16 06:19:19;;;;;;;;;;;;;;;4.64;49.67;102906.53;5050416;28;20381;-71
2021/04/16 06:21:45;;;;;;;;;;;;;;;4.68;49.73;102902.44;5045546;28;19971;-71
2021/04/16 06:24:10;;;;;;;;;;;;;;;4.74;50.01;102907.09;5050012;28;20082;-71
2021/04/16 06:26:35;;;;;;;;;;;;;;;4.81;49.92;102905.38;5048199;28;19917;-70
2021/04/16 06:29:03;;;;;;;;;;;;;;;4.87;49.95;102904.63;5051332;28;19959;-70
2021/04/16 06:31:29;;;;;;;;;;;;;;;4.93;50.07;102902.22;5035304;28;19913;-72
2021/04/16 06:33:54;;;;;;;;;;;;;;;4.96;50.17;102902.66;5049270;28;19917;-71
2021/04/16 06:36:19;;;;;;;;;;;;;;;5.02;50.32;102901.97;5050283;28;19912;-71
2021/04/16 06:38:45;;;;;;;;;;;;;;;5.07;50.21;102898.69;5048134;28;20012;-72
2021/04/16 06:41:12;;;;;;;;;;;;;;;5.13;50.31;102903.38;5030671;28;19924;-72
2021/04/16 06:43:40;;;;;;;;;;;;;;;5.21;50.28;102910.53;5046497;28;19934;-72
2021/04/16 06:46:05;;;;;;;;;;;;;;;5.28;50.06;102917.72;5046744;28;20403;-71
2021/04/16 06:48:30;;;;;;;;;;;;;;;5.37;50.03;102914.94;5044013;28;19999;-71
2021/04/16 06:50:59;;;;;;;;;;;;;;;5.43;50.26;102919.59;5050642;28;20374;-71
2021/04/16 06:53:39;;;;;;;;;;;;;;;5.48;49.99;102914.44;5043611;28;20293;-72
2021/04/16 06:56:10;;;;;;;;;;;;;;;5.54;49.93;102921.84;5071564;28;19927;-72
2021/04/16 06:58:52;;;;;;;;;;;;;;;5.59;50.21;102919.38;5047575;28;19912;-71
2021/04/16 07:01:25;;;;;;;;;;;;;;;5.62;49.98;102919.03;5032679;28;20362;-71
2021/04/16 07:03:57;;;;;;;;;;;;;;;5.64;50.07;102914.25;5049583;28;19935;-71
2021/04/16 07:06:23;;;;;;;;;;;;;;;5.64;49.96;102916.97;5042382;28;19931;-72
2021/04/16 07:09:00;;;;;;;;;;;;;;;5.65;50.20;102917.81;5046868;28;19912;-72
2021/04/16 07:11:28;;;;;;;;;;;;;;;5.69;50.24;102917.22;5043388;28;19991;-72
2021/04/16 07:13:53;;;;;;;;;;;;;;;5.76;50.08;102918.16;5047551;28;19939;-72
2021/04/16 07:16:19;;;;;;;;;;;;;;;5.81;49.91;102914.91;5074998;28;19929;-72
2021/04/16 07:18:45;;;;;;;;;;;;;;;5.85;49.91;102915.34;5044957;28;19921;-72
2021/04/16 07:21:12;;;;;;;;;;;;;;;5.86;50.21;102914.31;5040422;28;20294;-72
2021/04/16 07:24:03;;;;;;;;;;;;;;;5.89;49.93;102911.22;5071768;28;20301;-71
2021/04/16 07:26:40;;;;;;;;;;;;;;;5.97;49.98;102913.84;5046392;28;20828;-72
2021/04/16 07:29:06;;;;;;;;;;;;;;;6.02;49.72;102911.41;5043977;28;19913;-73
2021/04/16 07:31:48;;;;;;;;;;;;;;;6.09;49.92;102920.47;5048832;28;19920;-72
2021/04/16 07:34:20;;;;;;;;;;;;;;;6.15;49.82;102911.56;5050505;28;19959;-72
2021/04/16 07:36:46;;;;;;;;;;;;;;;6.23;49.62;102899.78;5050029;28;19913;-71
2021/04/16 07:39:14;;;;;;;;;;;;;;;6.29;49.59;102900.88;5043620;28;19912;-72
2021/04/16 07:41:43;;;;;;;;;;;;;;;6.34;49.53;102904.66;5047644;28;19923;-71
2021/04/16 07:44:15;;;;;;;;;;;;;;;6.39;49.63;102904.09;5046496;28;19947;-71
2021/04/16 07:46:41;;;;;;;;;;;;;;;6.44;49.46;102901.66;5048445;28;19970;-72
2021/04/16 07:49:09;;;;;;;;;;;;;;;6.48;49.42;102902.09;5046507;28;19925;-72
2021/04/16 07:51:34;;;;;;;;;;;;;;;6.54;49.28;102901.31;5045072;28;20328;-71
2021/04/16 07:54:19;;;;;;;;;;;;;;;6.58;49.18;102899.91;5046019;28;19916;-71
2021/04/16 07:56:44;;;;;;;;;;;;;;;6.66;49.08;102903.31;5077625;28;20011;-71
2021/04/16 07:59:10;;;;;;;;;;;;;;;6.74;49.07;102898.75;5047112;28;19963;-72
2021/04/16 08:01:38;;;;;;;;;;;;;;;6.89;48.86;102899.50;5048838;28;19912;-71
2021/04/16 08:04:13;;;;;;;;;;;;;;;7.01;48.78;102892.53;5042798;28;19999;-71
2021/04/16 08:06:42;;;;;;;;;;;;;;;7.07;48.67;102899.03;5047162;28;20633;-71
2021/04/16 08:09:26;;;;;;;;;;;;;;;7.15;48.57;102895.28;5049540;28;19947;-71
2021/04/16 08:12:00;;;;;;;;;;;;;;;7.23;48.50;102900.56;5042766;28;20374;-71
2021/04/16 08:14:30;;;;;;;;;;;;;;;7.30;48.44;102904.16;5051282;28;19957;-71
2021/04/16 08:17:14;;;;;;;;;;;;;;;7.44;48.30;102897.75;5050450;28;19916;-70
2021/04/16 08:19:39;;;;;;;;;;;;;;;7.55;48.08;102894.47;5042223;28;20023;-70
2021/04/16 08:22:37;;;;;;;;;;;;;;;7.67;47.67;102896.63;5048587;28;20011;-69
2021/04/16 08:25:02;;;;;;;;;;;;;;;7.79;47.37;102897.72;5049832;28;19909;-70
2021/04/16 08:27:30;;;;;;;;;;;;;;;7.88;47.00;102890.22;5050311;28;20358;-69
2021/04/16 08:29:57;;;;;;;;;;;;;;;7.98;46.92;102888.78;5047163;28;19960;-70
2021/04/16 08:32:25;;;;;;;;;;;;;;;8.04;47.07;102889.03;5031841;28;19916;-70
2021/04/16 08:35:01;;;;;;;;;;;;;;;8.11;46.70;102893.44;5043117;28;19932;-70
2021/04/16 08:37:29;;;;;;;;;;;;;;;8.22;46.50;102894.72;5032125;28;20373;-70
2021/04/16 08:39:54;;;;;;;;;;;;;;;8.34;46.19;102886.78;5051484;28;20030;-70
2021/04/16 08:42:30;;;;;;;;;;;;;;;8.40;45.98;102884.13;5048750;28;20390;-70
2021/04/16 08:44:59;;;;;;;;;;;;;;;8.44;45.90;102882.63;5045170;28;19916;-70
2021/04/16 08:47:24;;;;;;;;;;;;;;;8.55;45.91;102888.50;5069516;28;19951;-70
2021/04/16 08:49:50;;;;;;;;;;;;;;;8.64;45.67;102881.81;5050522;28;19920;-70
2021/04/16 08:52:16;;;;;;;;;;;;;;;8.76;45.74;102873.88;5050731;28;19913;-70
2021/04/16 08:54:42;;;;;;;;;;;;;;;8.88;45.23;102866.72;5069943;28;19917;-71
2021/04/16 08:57:09;;;;;;;;;;;;;;;9.00;45.26;102875.94;5047632;28;19912;-71
2021/04/16 08:59:43;;;;;;;;;;;;;;;9.13;44.97;102869.63;5046008;28;19958;-71
2021/04/16 09:02:16;;;;;;;;;;;;;;;9.27;44.98;102865.78;5062351;28;20023;-72
2021/04/16 09:04:43;;;;;;;;;;;;;;;9.40;44.84;102864.09;5077811;28;19951;-72
2021/04/16 09:07:11;;;;;;;;;;;;;;;9.57;44.88;102868.00;5079738;28;19967;-73
2021/04/16 09:09:47;;;;;;;;;;;;;;;9.69;44.76;102869.00;5035499;28;19923;-71
2021/04/16 09:12:30;;;;;;;;;;;;;;;9.69;44.23;102860.00;5049978;28;19944;-71
2021/04/16 09:14:56;;;;;;;;;;;;;;;9.75;44.63;102851.78;5052558;28;19912;-71
2021/04/16 09:17:32;;;;;;;;;;;;;;;9.78;44.42;102856.81;5077139;28;20318;-71
2021/04/16 09:19:58;;;;;;;;;;;;;;;9.83;44.48;102849.88;5053207;28;20354;-71
2021/04/16 09:22:25;;;;;;;;;;;;;;;9.83;44.00;102845.25;5077835;28;20355;-71
2021/04/16 09:24:53;;;;;;;;;;;;;;;9.81;43.66;102843.81;5052974;28;19918;-72
2021/04/16 09:27:24;;;;;;;;;;;;;;;9.89;43.64;102849.00;5048791;28;19913;-71
2021/04/16 09:29:50;;;;;;;;;;;;;;;10.05;43.33;102840.31;5050535;28;19966;-71
2021/04/16 09:32:27;;;;;;;;;;;;;;;10.16;43.28;102831.41;5051395;28;19921;-71
2021/04/16 09:34:52;;;;;;;;;;;;;;;10.19;42.97;102825.50;5051030;28;19917;-71
2021/04/16 09:37:24;;;;;;;;;;;;;;;10.22;43.12;102825.06;5049573;28;19912;-71
2021/04/16 09:40:08;;;;;;;;;;;;;;;10.33;43.11;102825.44;5053160;28;19978;-71
2021/04/16 09:42:35;;;;;;;;;;;;;;;10.42;42.57;102815.91;5051651;28;19921;-71
2021/04/16 09:45:00;;;;;;;;;;;;;;;10.41;42.12;102817.00;5053078;28;19920;-70
2021/04/16 09:48:00;;;;;;;;;;;;;;;10.41;41.66;102822.44;5048542;28;19923;-71
2021/04/16 09:50:26;;;;;;;;;;;;;;;10.49;41.63;102822.16;5044080;28;19916;-71
2021/04/16 09:53:10;;;;;;;;;;;;;;;10.59;41.49;102811.59;5045910;28;20290;-71
2021/04/16 09:55:42;;;;;;;;;;;;;;;10.63;41.17;102812.78;5054316;28;19916;-71
2021/04/16 09:58:08;;;;;;;;;;;;;;;10.64;40.70;102817.22;5075497;28;19936;-71
2021/04/16 10:00:36;;;;;;;;;;;;;;;10.76;40.81;102802.81;5045325;28;19921;-71
2021/04/16 10:03:20;;;;;;;;;;;;;;;10.89;40.69;102808.16;5050511;28;20238;-70
2021/04/16 10:05:45;;;;;;;;;;;;;;;11.03;40.48;102798.75;5050813;28;20366;-71
2021/04/16 10:08:18;;;;;;;;;;;;;;;11.03;40.02;102803.38;5047247;28;19909;-71
2021/04/16 10:10:43;;;;;;;;;;;;;;;11.16;40.26;102805.09;5049477;28;19917;-73
2021/04/16 10:13:13;;;;;;;;;;;;;;;11.22;39.77;102812.41;5049844;28;20402;-74
2021/04/16 10:15:39;;;;;;;;;;;;;;;11.25;39.42;102804.56;5067777;28;19927;-72
2021/04/16 10:18:06;;;;;;;;;;;;;;;11.31;39.37;102802.81;5049541;28;19919;-72
2021/04/16 10:20:38;;;;;;;;;;;;;;;11.41;39.40;102800.38;5047331;28;20299;-73
2021/04/16 10:23:05;;;;;;;;;;;;;;;11.50;39.22;102796.25;5052181;28;19916;-73
2021/04/16 12:39:21;;;;;;;;;;;;;;;19.16;28.16;102677.84;5047324;28;20320;-73
2021/04/16 12:41:50;;;;;;;;;;;;;;;19.30;28.18;102676.09;5046862;28;20350;-73
2021/04/16 12:44:35;;;;;;;;;;;;;;;19.42;27.60;102668.25;5044269;28;19916;-73
2021/04/16 12:47:04;;;;;;;;;;;;;;;19.50;27.74;102672.34;5044064;28;20322;-72
2021/04/16 12:49:30;;;;;;;;;;;;;;;19.87;27.17;102666.25;5049991;28;19914;-73
2021/04/16 12:51:56;;;;;;;;;;;;;;;20.02;27.50;102667.22;5045784;28;19913;-73
2021/04/16 12:54:21;;;;;;;;;;;;;;;20.29;27.24;102667.47;5041795;28;19912;-73
2021/04/16 12:56:48;;;;;;;;;;;;;;;20.42;26.88;102670.66;5037161;28;19916;-73
2021/04/16 12:59:20;;;;;;;;;;;;;;;20.53;26.74;102661.13;5043558;28;19964;-73
2021/04/16 13:01:46;;;;;;;;;;;;;;;20.74;26.46;102656.19;5053392;28;19917;-73
2021/04/16 13:04:12;;;;;;;;;;;;;;;20.81;26.16;102659.38;5046253;28;19999;-73
2021/04/16 13:06:38;;;;;;;;;;;;;;;20.74;25.71;102651.47;5042959;28;19917;-74
2021/04/16 13:09:04;;;;;;;;;;;;;;;20.69;25.99;102651.50;5028609;28;19927;-74
2021/04/16 13:11:29;;;;;;;;;;;;;;;20.73;25.72;102649.78;5047095;28;19939;-75
2021/04/16 13:13:54;;;;;;;;;;;;;;;20.92;25.52;102646.22;5040609;28;20374;-75
2021/04/16 13:16:20;;;;;;;;;;;;;;;21.23;25.64;102647.41;5045763;28;20000;-75
2021/04/16 13:18:47;;;;;;;;;;;;;;;21.71;25.52;102641.66;5046216;28;19999;-74
2021/04/16 13:21:14;;;;;;;;;;;;;;;21.77;24.83;102644.34;5074304;28;19920;-74
2021/04/16 13:23:40;;;;;;;;;;;;;;;22.07;24.89;102640.16;5046117;28;19908;-74
2021/04/16 13:26:06;;;;;;;;;;;;;;;22.38;24.56;102638.47;5047365;28;19940;-72
2021/04/16 13:28:31;;;;;;;;;;;;;;;22.68;24.53;102635.38;5047009;28;20277;-73
2021/04/16 13:30:57;;;;;;;;;;;;;;;22.71;24.09;102630.00;5044965;28;19932;-73
2021/04/16 13:33:22;;;;;;;;;;;;;;;22.64;23.81;102629.59;5044843;28;20242;-73
2021/04/16 13:35:49;;;;;;;;;;;;;;;22.67;24.01;102633.69;5044578;28;20306;-73
2021/04/16 13:38:18;;;;;;;;;;;;;;;22.95;23.58;102626.94;5077408;28;19949;-74
2021/04/16 13:40:44;;;;;;;;;;;;;;;22.87;23.50;102627.69;5081685;28;19978;-74
2021/04/16 13:43:09;;;;;;;;;;;;;;;22.75;23.34;102619.91;5072919;28;20370;-73
2021/04/16 13:45:35;;;;;;;;;;;;;;;22.91;23.32;102622.31;5049590;28;20007;-73
2021/04/16 13:48:00;;;;;;;;;;;;;;;23.01;23.33;102624.91;5046945;28;19917;-73
2021/04/16 13:50:25;;;;;;;;;;;;;;;23.21;23.17;102610.50;5076263;28;19938;-73
2021/04/16 13:52:51;;;;;;;;;;;;;;;23.00;23.38;102614.94;5077764;28;19913;-73
2021/04/16 13:55:16;;;;;;;;;;;;;;;22.97;23.08;102605.25;5049737;28;19939;-73
2021/04/16 13:57:41;;;;;;;;;;;;;;;22.81;22.84;102613.09;5049579;28;19943;-73
2021/04/16 14:00:07;;;;;;;;;;;;;;;22.92;23.07;102608.13;5045639;28;19913;-73
2021/04/16 14:02:34;;;;;;;;;;;;;;;22.94;22.91;102605.00;5082030;28;19949;-73
2021/04/16 14:05:00;;;;;;;;;;;;;;;22.98;22.76;102601.31;5049901;28;19916;-73
2021/04/16 14:07:26;;;;;;;;;;;;;;;23.19;22.83;102601.66;5047807;28;19916;-73
2021/04/16 14:09:51;;;;;;;;;;;;;;;23.53;22.68;102597.44;5051606;28;19962;-73
2021/04/16 14:12:16;;;;;;;;;;;;;;;23.66;22.41;102593.75;5052791;28;20346;-72
2021/04/16 14:14:44;;;;;;;;;;;;;;;23.90;22.36;102589.81;5052646;28;19963;-73
2021/04/16 14:17:11;;;;;;;;;;;;;;;24.06;22.23;102585.47;5050510;28;19986;-73
2021/04/16 14:19:49;;;;;;;;;;;;;;;24.31;21.93;102583.06;5047086;28;19913;-73
2021/04/16 14:22:16;;;;;;;;;;;;;;;24.66;21.99;102580.34;5050789;28;19913;-73
2021/04/16 14:24:41;;;;;;;;;;;;;;;25.13;21.78;102581.38;5047264;28;19919;-73
2021/04/16 14:27:07;;;;;;;;;;;;;;;25.59;21.91;102574.25;5050942;28;19921;-73
2021/04/16 14:29:32;;;;;;;;;;;;;;;25.93;21.69;102568.88;5052111;28;19913;-73
2021/04/16 14:31:57;;;;;;;;;;;;;;;25.63;21.70;102575.19;5049687;28;20115;-73
2021/04/16 14:34:24;;;;;;;;;;;;;;;25.30;22.06;102572.16;5052069;28;19948;-74
2021/04/16 14:36:49;;;;;;;;;;;;;;;25.26;21.86;102571.16;5050502;28;19912;-74
2021/04/16 14:39:15;;;;;;;;;;;;;;;25.60;22.29;102564.69;5083012;28;19920;-73
2021/04/16 14:41:40;;;;;;;;;;;;;;;26.76;21.65;102565.41;5051944;28;20281;-73
2021/04/16 14:44:06;;;;;;;;;;;;;;;28.07;20.70;102562.03;5048389;28;19920;-73
2021/04/16 14:46:31;;;;;;;;;;;;;;;28.83;20.08;102559.56;5050019;28;20030;-73
2021/04/16 14:48:56;;;;;;;;;;;;;;;29.41;19.96;102562.81;5034227;28;20277;-71
2021/04/16 14:51:26;;;;;;;;;;;;;;;30.11;19.32;102561.38;5084336;28;19924;-71
2021/04/16 14:53:53;;;;;;;;;;;;;;;30.69;19.08;102564.31;5050633;28;19909;-74
2021/04/16 14:56:19;;;;;;;;;;;;;;;31.38;18.50;102562.53;5074051;28;20243;-73
2021/04/16 14:59:04;;;;;;;;;;;;;;;31.69;18.41;102559.84;5048897;28;19912;-74